Main page
METAR-TAF:

METAR-TAF

Airports :

Palma de Mallorca Airport

Palma de Mallorca, Spain

latitude: 39-33N, longitude: 002-44E, elevation: 4 m

Current weather observation

The report was made 15 minutes ago, at 20:00 UTC
Wind 4 kt from the East, varying between East/Northeast and Southeast
Temperature 7°C
Humidity 81%
Pressure 1028 hPa
Visibility 10 km or more
Broken clouds at a height of 4000 ft

METAR: LEPA 212000Z 10004KT 070V130 9999 BKN040 07/04 Q1028 NOSIG

Time: 21:15 (20:15 UTC)

Forecast

The report was made 3 hours and 15 minutes ago, at 17:00 UTC
Forecast valid from 21 at 18 UTC to 22 at 18 UTC
Wind 5 kt from the North/Northeast
Visibility 10 km or more
Few clouds at a height of 2000 ft
Becoming
from 22 at 11 UTC to 22 at 14 UTC
Wind 10 kt from the North/Northwest

TAF: LEPA 211700Z 2118/2218 03005KT 9999 FEW020 TX13/2213Z TN02/2206Z BECMG 2211/2214 33010KT

Weather observations and forecasts of more than 4000 airports (METAR and TAF reports).

The available stations are represented by yellow and red dots on the map.

Hover mouse over dot to see the name of the station.

Then click to see weather observations and forecasts.

To change the map : click on the green buttons with a black cross to zoom in, on the green button with a dash to zoom out, or on the green arrows for adjacent maps.


METAR-TAF: